Guanajuato, Mexico

11:39 AM CDT on August 25, 2016 (GMT -0500)
| | Change Station

Elev -9999 ft 0.00 °N, 0.00 °E | Updated

Cloudy
Cloudy
65 °F
Feels Like 65 °F
N
4
Wind Variable Wind from WSW
Gusts mph

Today
High -- | Low -- °F
--% Chance of Precip.
Yesterday
High -- | Low -- °F
Precip. -- in
Pressure 30.38 in
Visibility 7.0 miles
Clouds Few 1000 ft
Scattered Clouds 3000 ft
Mostly Cloudy 12000 ft
Mostly Cloudy 25000 ft
Dew Point 57 °F
Humidity 74%
Rainfall --
Snow Depth Not available.
7:26 AM 8:06 PM
Last Quarter, 44% visible
METAR MMLO 251542Z 16005KT 7SM FEW010 SCT030 BKN120 BKN250 18/14 A3038 RMK 8/538 HZY
Pressure 30.38 in
Visibility 7.0 miles
Clouds Few 1000 ft
Scattered Clouds 3000 ft
Mostly Cloudy 12000 ft
Mostly Cloudy 25000 ft
Dew Point 57 °F
Humidity 74%
Rainfall --
Snow Depth Not available.
7:26 AM 8:06 PM
Last Quarter, 44% visible
METAR MMLO 251542Z 16005KT 7SM FEW010 SCT030 BKN120 BKN250 18/14 A3038 RMK 8/538 HZY

10-Day Weather Forecast

No radar image for this location.
×

Almanac

Astronomy

Aug. 25, 2016 Rise Set
Actual Time
Civil Twilight
Nautical Twilight
Astronomical Twilight
Moon
Length of Visible Light
Length of Day
Tomorrow will be .
, % of the Moon is Illuminated

Today's Extremes

Country Highs Country Lows

Community

WunderPhotos

Upload Photos

1,934,869 photos uploaded!

WunderBlog® & News

Nearby

Air Quality

  Air Quality AQ Index Pollutant
Not available.

Snow Depth

Station Depth Elevation

Earthquake Activity

City Distance Mag. Time & Date
Minimum magnitude displayed is 2.5.

Coastal Water Temperatures

Place Temperature

Stations

Nearby Weather Stations

Station Location Temp. Windchill Dew Point Humidity Wind Precip. Elev Updated Type